Time;durP1;ratioP1;P1;durP2;ratioP2;P2;SDS_P1;SDS_P2;PMS_P1;PMS_P2;Temp;Humidity;BMP_temperature;BMP_pressure;BME280_temperature;BME280_humidity;BME280_pressure;Samples;Min_cycle;Max_cycle;Signal;HPM_P1;HPM_P2
2023/05/04 00:05:16;;;;;;;8.43;4.57;;;;;;;;;;6313373;28;20064;-77
2023/05/04 00:08:28;;;;;;;;;;;;;;;;;;;;;
2023/05/04 00:11:30;;;;;;;6.50;4.05;;;;;;;;;;6308271;28;20040;-77
2023/05/04 00:15:17;;;;;;;5.00;4.22;;;;;;;;;;6316801;28;20127;-77
2023/05/04 00:18:25;;;;;;;6.32;4.70;;;;;;;;;;6306084;28;20240;-77
2023/05/04 00:21:51;;;;;;;6.90;4.18;;;;;;;;;;6335865;27;20063;-78
2023/05/04 00:25:02;;;;;;;;;;;;;;;;;;;;;
2023/05/04 00:31:43;;;;;;;7.28;4.65;;;;;;;;;;6295127;28;20053;-77
2023/05/04 00:34:46;;;;;;;6.45;5.22;;;;;;;;;;6211704;28;20176;-77
2023/05/04 00:41:51;;;;;;;6.65;5.20;;;;;;;;;;6093411;29;20171;-77
2023/05/04 00:45:14;;;;;;;6.53;5.55;;;;;;;;;;6099751;29;20168;-78
2023/05/04 00:48:16;;;;;;;6.32;5.38;;;;;;;;;;6101747;29;20095;-77
2023/05/04 00:51:52;;;;;;;6.85;5.93;;;;;;;;;;6101301;29;20040;-77
2023/05/04 00:54:56;;;;;;;6.45;5.85;;;;;;;;;;6102057;29;20051;-77
2023/05/04 00:58:05;;;;;;;6.60;5.47;;;;;;;;;;6102856;29;20103;-77
2023/05/04 01:01:07;;;;;;;8.13;5.85;;;;;;;;;;6102817;29;20063;-76
2023/05/04 01:07:33;;;;;;;6.80;6.05;;;;;;;;;;6062466;29;20119;-77
2023/05/04 01:14:16;;;;;;;7.70;5.95;;;;;;;;;;6205939;28;20334;-78
2023/05/04 01:17:28;;;;;;;;;;;;;;;;;;;;;
2023/05/04 01:20:35;;;;;;;6.95;6.25;;;;;;;;;;6317438;28;20063;-77
2023/05/04 01:24:04;;;;;;;7.15;6.45;;;;;;;;;;6335261;28;20075;-77
2023/05/04 01:27:19;;;;;;;7.45;6.28;;;;;;;;;;6333395;27;20075;-77
2023/05/04 01:30:24;;;;;;;6.75;5.97;;;;;;;;;;6340577;28;20063;-77
2023/05/04 01:33:27;;;;;;;8.27;6.88;;;;;;;;;;6339684;27;20056;-77
2023/05/04 01:36:29;;;;;;;7.83;6.83;;;;;;;;;;6316536;28;20240;-77
2023/05/04 01:39:46;;;;;;;8.63;6.50;;;;;;;;;;6335517;28;20083;-77
2023/05/04 01:43:02;;;;;;;7.15;6.45;;;;;;;;;;6335939;27;20063;-77
2023/05/04 01:46:43;;;;;;;7.45;6.72;;;;;;;;;;6340573;27;20062;-77
2023/05/04 01:49:57;;;;;;;7.63;6.82;;;;;;;;;;6328155;28;20051;-77
2023/05/04 01:53:07;;;;;;;9.23;6.05;;;;;;;;;;6337520;27;20048;-77
2023/05/04 01:56:22;;;;;;;7.28;6.55;;;;;;;;;;6328503;28;20038;-77
2023/05/04 01:59:39;;;;;;;8.73;6.40;;;;;;;;;;6333349;28;20055;-77
2023/05/04 02:06:07;;;;;;;10.88;7.00;;;;;;;;;;6311438;28;20123;-77
2023/05/04 02:09:09;;;;;;;8.60;6.55;;;;;;;;;;6302231;28;20047;-78
2023/05/04 02:12:11;;;;;;;8.35;7.00;;;;;;;;;;6339504;28;20257;-77
2023/05/04 02:15:55;;;;;;;7.22;6.53;;;;;;;;;;6305893;28;20653;-77
2023/05/04 02:19:17;;;;;;;10.48;7.50;;;;;;;;;;6284613;28;20379;-77
2023/05/04 02:22:27;;;;;;;9.80;7.05;;;;;;;;;;6285200;28;20083;-77
2023/05/04 02:25:29;;;;;;;9.48;7.10;;;;;;;;;;6287894;28;20052;-77
2023/05/04 02:28:31;;;;;;;8.57;7.57;;;;;;;;;;6284508;28;20059;-77
2023/05/04 02:31:34;;;;;;;8.20;7.35;;;;;;;;;;6289125;28;20056;-77
2023/05/04 02:34:39;;;;;;;7.63;6.82;;;;;;;;;;6289488;28;20091;-77
2023/05/04 02:38:19;;;;;;;8.77;7.13;;;;;;;;;;6284160;28;20049;-76
2023/05/04 02:41:21;;;;;;;8.48;7.22;;;;;;;;;;6292453;28;20494;-77
2023/05/04 02:44:23;;;;;;;7.55;6.80;;;;;;;;;;6340527;28;20058;-77
2023/05/04 02:47:27;;;;;;;8.45;7.32;;;;;;;;;;6343455;28;20464;-77
2023/05/04 02:50:29;;;;;;;8.73;7.45;;;;;;;;;;6342488;28;20056;-77
2023/05/04 02:53:30;;;;;;;9.35;7.93;;;;;;;;;;6338332;28;20333;-77
2023/05/04 02:56:42;;;;;;;9.65;7.50;;;;;;;;;;6337823;28;20055;-77
2023/05/04 02:59:43;;;;;;;8.52;7.38;;;;;;;;;;6338173;28;20336;-77
2023/05/04 03:03:45;;;;;;;9.43;8.23;;;;;;;;;;6337941;28;20239;-77
2023/05/04 03:07:23;;;;;;;8.93;8.02;;;;;;;;;;6260812;28;20099;-77
2023/05/04 03:10:31;;;;;;;9.18;7.40;;;;;;;;;;6338042;28;20128;-77
2023/05/04 03:13:33;;;;;;;8.48;7.55;;;;;;;;;;6337021;28;20228;-77
2023/05/04 03:16:35;;;;;;;9.10;7.50;;;;;;;;;;6336209;28;20059;-77
2023/05/04 03:19:37;;;;;;;8.52;7.20;;;;;;;;;;6338972;28;20134;-77
2023/05/04 03:22:40;;;;;;;11.65;7.38;;;;;;;;;;6338222;28;20122;-77
2023/05/04 03:25:42;;;;;;;8.63;7.65;;;;;;;;;;6338756;28;20052;-77
2023/05/04 03:28:44;;;;;;;11.68;8.18;;;;;;;;;;6337746;28;20044;-77
2023/05/04 03:32:28;;;;;;;10.05;8.02;;;;;;;;;;6338087;28;20127;-77
2023/05/04 03:35:38;;;;;;;9.15;7.82;;;;;;;;;;6317335;28;20054;-78
2023/05/04 03:42:25;;;;;;;11.23;8.73;;;;;;;;;;6339325;28;20052;-77
2023/05/04 03:45:27;;;;;;;12.07;8.75;;;;;;;;;;6343814;27;20097;-77
2023/05/04 03:48:29;;;;;;;10.82;7.85;;;;;;;;;;6314623;28;20044;-77
2023/05/04 03:51:34;;;;;;;11.07;8.25;;;;;;;;;;6335040;28;20064;-77
2023/05/04 03:54:37;;;;;;;9.73;8.20;;;;;;;;;;6335849;27;20119;-77
2023/05/04 03:57:58;;;;;;;9.48;7.85;;;;;;;;;;6338688;27;20040;-77
2023/05/04 04:01:02;;;;;;;10.68;8.20;;;;;;;;;;6341548;27;20043;-77
2023/05/04 04:04:04;;;;;;;10.73;8.35;;;;;;;;;;6343413;28;20225;-77
2023/05/04 04:07:06;;;;;;;10.65;8.07;;;;;;;;;;6340067;28;20124;-77
2023/05/04 04:10:10;;;;;;;11.15;8.63;;;;;;;;;;6340569;27;20223;-77
2023/05/04 04:13:12;;;;;;;10.13;8.27;;;;;;;;;;6342353;27;20052;-77
2023/05/04 04:16:14;;;;;;;11.88;8.30;;;;;;;;;;6342524;27;20108;-77
2023/05/04 04:19:16;;;;;;;11.07;8.10;;;;;;;;;;6342435;27;20047;-77
2023/05/04 04:22:18;;;;;;;10.50;8.73;;;;;;;;;;6341223;28;20048;-77
2023/05/04 04:25:22;;;;;;;11.32;8.32;;;;;;;;;;6340753;27;20055;-77
2023/05/04 04:28:27;;;;;;;11.00;8.00;;;;;;;;;;6341226;27;20224;-77
2023/05/04 04:31:29;;;;;;;10.07;8.98;;;;;;;;;;6342010;28;20059;-77
2023/05/04 04:34:31;;;;;;;11.65;7.80;;;;;;;;;;6342653;27;20084;-77
2023/05/04 04:37:33;;;;;;;11.10;8.38;;;;;;;;;;6339473;28;20074;-77
2023/05/04 04:40:36;;;;;;;11.63;8.38;;;;;;;;;;6342303;27;20055;-77
2023/05/04 04:43:39;;;;;;;13.33;9.13;;;;;;;;;;6338737;27;20105;-77
2023/05/04 04:46:45;;;;;;;9.10;7.35;;;;;;;;;;6332157;28;20074;-75
2023/05/04 04:49:47;;;;;;;10.98;8.50;;;;;;;;;;6344141;28;20051;-76
2023/05/04 04:52:49;;;;;;;11.15;7.88;;;;;;;;;;6340506;27;20059;-78
2023/05/04 04:55:53;;;;;;;11.27;8.55;;;;;;;;;;6340681;28;20166;-77
2023/05/04 04:58:55;;;;;;;9.68;7.93;;;;;;;;;;6338319;27;20048;-76
2023/05/04 05:01:59;;;;;;;11.13;8.25;;;;;;;;;;6336572;27;20046;-77
2023/05/04 05:05:05;;;;;;;10.65;8.45;;;;;;;;;;6338252;28;20051;-76
2023/05/04 05:08:07;;;;;;;12.27;8.18;;;;;;;;;;6340710;28;20115;-76
2023/05/04 05:11:11;;;;;;;10.10;7.78;;;;;;;;;;6341937;27;20044;-77
2023/05/04 05:14:13;;;;;;;10.82;8.52;;;;;;;;;;6341943;27;21355;-76
2023/05/04 05:17:15;;;;;;;10.77;8.00;;;;;;;;;;6341944;28;20051;-76
2023/05/04 05:20:16;;;;;;;8.98;7.50;;;;;;;;;;6339062;28;20243;-76
2023/05/04 05:23:19;;;;;;;12.10;8.90;;;;;;;;;;6338821;28;20101;-77
2023/05/04 05:26:23;;;;;;;10.25;8.18;;;;;;;;;;6338830;28;20055;-77
2023/05/04 05:29:25;;;;;;;10.70;8.20;;;;;;;;;;6342089;28;20369;-77
2023/05/04 05:32:27;;;;;;;10.57;8.13;;;;;;;;;;6339302;28;20059;-76
2023/05/04 05:35:28;;;;;;;13.63;8.80;;;;;;;;;;6338211;28;20062;-77
2023/05/04 05:38:32;;;;;;;10.45;8.30;;;;;;;;;;6339169;28;20048;-76
2023/05/04 05:41:37;;;;;;;9.50;8.15;;;;;;;;;;6341670;28;20122;-76
2023/05/04 05:44:39;;;;;;;11.55;8.20;;;;;;;;;;6339016;28;20055;-76
2023/05/04 05:47:41;;;;;;;8.50;7.45;;;;;;;;;;6340037;28;20048;-76
2023/05/04 05:50:43;;;;;;;10.75;7.63;;;;;;;;;;6337725;28;20072;-76
2023/05/04 05:53:45;;;;;;;12.38;7.72;;;;;;;;;;6338577;28;20051;-76
2023/05/04 05:56:48;;;;;;;9.50;6.90;;;;;;;;;;6336398;28;20082;-76
2023/05/04 05:59:50;;;;;;;11.88;8.10;;;;;;;;;;6339831;28;21229;-76
2023/05/04 06:02:52;;;;;;;8.45;6.78;;;;;;;;;;6338714;28;20052;-77
2023/05/04 06:05:54;;;;;;;10.38;6.80;;;;;;;;;;6337388;28;20355;-77
2023/05/04 06:08:56;;;;;;;8.07;6.25;;;;;;;;;;6340780;28;20052;-79
2023/05/04 06:11:59;;;;;;;9.20;6.50;;;;;;;;;;6339637;28;20235;-79
2023/05/04 06:15:03;;;;;;;9.93;6.93;;;;;;;;;;6338572;28;20112;-80
2023/05/04 06:18:05;;;;;;;8.20;6.10;;;;;;;;;;6328908;27;20082;-77
2023/05/04 06:21:07;;;;;;;8.38;6.60;;;;;;;;;;6334485;28;20342;-78
2023/05/04 06:24:10;;;;;;;9.07;6.00;;;;;;;;;;6340106;28;20040;-78
2023/05/04 06:27:13;;;;;;;10.55;5.95;;;;;;;;;;6337783;28;20055;-78
2023/05/04 06:30:16;;;;;;;9.27;6.50;;;;;;;;;;6339871;28;20055;-78
2023/05/04 06:33:17;;;;;;;8.02;6.50;;;;;;;;;;6334632;28;20295;-79
2023/05/04 06:36:19;;;;;;;6.70;5.05;;;;;;;;;;6334177;27;20166;-77
2023/05/04 06:39:21;;;;;;;4.80;3.00;;;;;;;;;;6338768;28;20646;-80
2023/05/04 06:42:24;;;;;;;9.07;4.35;;;;;;;;;;6338801;28;20096;-80
2023/05/04 06:45:26;;;;;;;8.35;5.10;;;;;;;;;;6338226;28;20051;-76
2023/05/04 06:48:28;;;;;;;3.72;2.47;;;;;;;;;;6335814;28;20068;-78
2023/05/04 06:51:30;;;;;;;8.98;3.28;;;;;;;;;;6340351;28;20052;-77
2023/05/04 06:54:32;;;;;;;3.38;2.72;;;;;;;;;;6337174;28;20159;-76
2023/05/04 06:57:35;;;;;;;5.07;3.65;;;;;;;;;;6336902;28;20063;-76
2023/05/04 07:00:37;;;;;;;4.85;3.40;;;;;;;;;;6336014;28;20374;-77
2023/05/04 07:03:39;;;;;;;5.00;3.40;;;;;;;;;;6339334;28;20180;-77
2023/05/04 07:06:41;;;;;;;2.50;2.30;;;;;;;;;;6338705;28;20103;-76
2023/05/04 07:09:42;;;;;;;2.47;2.28;;;;;;;;;;6333630;28;20051;-78
2023/05/04 07:12:46;;;;;;;3.05;2.38;;;;;;;;;;6337159;28;20067;-74
2023/05/04 07:15:48;;;;;;;3.67;2.20;;;;;;;;;;6343065;27;20043;-74
2023/05/04 07:18:50;;;;;;;2.75;2.45;;;;;;;;;;6343505;28;20051;-77
2023/05/04 07:25:08;;;;;;;3.63;2.63;;;;;;;;;;6341263;27;20054;-76
2023/05/04 07:28:15;;;;;;;4.47;2.58;;;;;;;;;;6343389;27;20134;-76
2023/05/04 07:31:18;;;;;;;3.60;2.13;;;;;;;;;;6344142;27;20044;-75
2023/05/04 07:37:35;;;;;;;8.25;2.80;;;;;;;;;;6340823;28;20062;-76
2023/05/04 07:40:41;;;;;;;4.13;2.10;;;;;;;;;;6332333;27;20056;-75
2023/05/04 07:43:47;;;;;;;3.30;2.00;;;;;;;;;;6342289;27;20247;-76
2023/05/04 07:46:52;;;;;;;3.25;1.77;;;;;;;;;;6341575;27;20043;-76
2023/05/04 07:50:37;;;;;;;3.42;2.47;;;;;;;;;;6342557;28;20051;-76
2023/05/04 07:53:39;;;;;;;;;;;;;;;;;;6340131;28;20234;-76
2023/05/04 07:56:41;;;;;;;3.47;1.98;;;;;;;;;;6340814;28;19931;-76
2023/05/04 07:59:44;;;;;;;2.92;2.03;;;;;;;;;;6341703;28;20048;-76
2023/05/04 08:02:46;;;;;;;2.95;2.42;;;;;;;;;;6341085;27;20744;-78
2023/05/04 08:05:50;;;;;;;4.47;2.50;;;;;;;;;;6339789;27;20052;-76
2023/05/04 08:08:55;;;;;;;3.25;2.20;;;;;;;;;;6344540;27;20055;-76
2023/05/04 08:12:11;;;;;;;2.72;2.40;;;;;;;;;;6341896;28;20115;-76
2023/05/04 08:15:15;;;;;;;4.53;2.50;;;;;;;;;;6330323;28;20058;-76
2023/05/04 08:18:26;;;;;;;3.85;2.42;;;;;;;;;;6339394;28;20271;-82
2023/05/04 08:21:29;;;;;;;65.07;36.95;;;;;;;;;;6345121;28;20052;-81
2023/05/04 08:24:31;;;;;;;80.35;45.60;;;;;;;;;;6341578;28;20269;-81
2023/05/04 08:27:32;;;;;;;6.13;4.68;;;;;;;;;;6340255;28;21070;-81
2023/05/04 08:30:36;;;;;;;5.65;4.45;;;;;;;;;;6344158;28;20297;-76
2023/05/04 08:33:38;;;;;;;6.13;4.10;;;;;;;;;;6341385;28;20055;-80
2023/05/04 08:36:40;;;;;;;3.85;2.75;;;;;;;;;;6339448;28;20123;-78
2023/05/04 08:39:44;;;;;;;3.88;3.08;;;;;;;;;;6343117;28;20047;-79
2023/05/04 08:42:49;;;;;;;4.20;3.60;;;;;;;;;;6340501;28;20139;-78
2023/05/04 08:45:52;;;;;;;4.15;3.50;;;;;;;;;;6339547;28;20048;-79
2023/05/04 08:48:56;;;;;;;7.07;3.47;;;;;;;;;;6339943;28;20066;-79
2023/05/04 08:51:59;;;;;;;3.90;3.22;;;;;;;;;;6339755;28;20063;-79
2023/05/04 08:55:01;;;;;;;3.50;3.17;;;;;;;;;;6342717;27;20119;-78
2023/05/04 08:58:08;;;;;;;4.53;3.55;;;;;;;;;;6341472;28;20056;-77
2023/05/04 09:01:12;;;;;;;4.28;3.38;;;;;;;;;;6339921;28;20052;-76
2023/05/04 09:04:14;;;;;;;3.65;3.35;;;;;;;;;;6336016;28;20084;-76
2023/05/04 09:07:16;;;;;;;3.90;3.50;;;;;;;;;;6339709;27;20044;-77
2023/05/04 09:10:18;;;;;;;3.65;3.30;;;;;;;;;;6341241;27;20052;-76
2023/05/04 09:13:20;;;;;;;4.10;3.30;;;;;;;;;;6339895;28;20058;-77
2023/05/04 09:16:23;;;;;;;3.33;2.83;;;;;;;;;;6337576;27;20061;-76
2023/05/04 09:19:32;;;;;;;;;;;;;;;;;;6338309;27;20052;-76
2023/05/04 09:22:33;;;;;;;3.95;3.20;;;;;;;;;;6339610;28;20043;-76
2023/05/04 09:25:47;;;;;;;4.57;3.40;;;;;;;;;;6340545;27;20055;-76
2023/05/04 09:28:49;;;;;;;3.60;2.70;;;;;;;;;;6337358;28;20135;-76
2023/05/04 09:31:52;;;;;;;3.70;3.08;;;;;;;;;;6338897;27;20079;-76
2023/05/04 09:34:54;;;;;;;3.92;2.95;;;;;;;;;;6336914;27;20058;-76
2023/05/04 09:37:56;;;;;;;3.50;3.13;;;;;;;;;;6338886;28;20048;-76
2023/05/04 09:40:58;;;;;;;3.03;2.63;;;;;;;;;;6338387;28;20607;-76
2023/05/04 09:44:00;;;;;;;4.63;4.00;;;;;;;;;;6344703;27;20051;-76
2023/05/04 09:47:03;;;;;;;4.28;3.42;;;;;;;;;;6339820;27;20310;-76
2023/05/04 09:50:24;;;;;;;5.55;3.30;;;;;;;;;;6338769;28;20279;-76
2023/05/04 09:53:28;;;;;;;2.97;2.60;;;;;;;;;;6337645;27;20085;-76
2023/05/04 09:56:38;;;;;;;6.18;3.80;;;;;;;;;;6338712;27;20089;-76
2023/05/04 09:59:41;;;;;;;4.60;3.13;;;;;;;;;;6343942;28;20067;-76
2023/05/04 10:02:45;;;;;;;6.78;3.67;;;;;;;;;;6338123;28;20047;-76
2023/05/04 10:05:47;;;;;;;3.90;3.50;;;;;;;;;;6338370;27;20051;-76
2023/05/04 10:08:49;;;;;;;3.30;3.00;;;;;;;;;;6337127;28;20052;-76
2023/05/04 10:11:52;;;;;;;3.95;3.55;;;;;;;;;;6338087;28;20503;-76
2023/05/04 10:14:54;;;;;;;4.25;3.03;;;;;;;;;;6337898;28;20245;-76
2023/05/04 10:18:09;;;;;;;3.47;3.17;;;;;;;;;;6336388;28;20090;-76
2023/05/04 10:21:23;;;;;;;3.70;3.30;;;;;;;;;;6341590;28;20154;-76
2023/05/04 10:24:52;;;;;;;6.25;4.03;;;;;;;;;;6339155;28;20313;-76
2023/05/04 10:28:02;;;;;;;4.28;3.05;;;;;;;;;;6335470;28;20040;-76
2023/05/04 10:31:05;;;;;;;4.45;3.00;;;;;;;;;;6336568;28;20131;-75
2023/05/04 10:34:08;;;;;;;4.30;3.90;;;;;;;;;;6335647;28;20361;-76
2023/05/04 10:37:16;;;;;;;5.80;4.35;;;;;;;;;;6336579;28;20051;-76
2023/05/04 10:40:18;;;;;;;5.32;4.30;;;;;;;;;;6338364;28;20146;-76
2023/05/04 10:43:23;;;;;;;4.65;4.15;;;;;;;;;;6339251;28;20051;-76
2023/05/04 10:46:25;;;;;;;5.82;5.13;;;;;;;;;;6334966;28;20072;-76
2023/05/04 10:49:29;;;;;;;8.43;4.55;;;;;;;;;;6338711;28;20059;-76
2023/05/04 10:52:31;;;;;;;5.43;4.80;;;;;;;;;;6342085;27;20059;-76
2023/05/04 10:55:39;;;;;;;5.13;4.60;;;;;;;;;;6343155;28;20056;-76
2023/05/04 10:58:41;;;;;;;4.80;4.40;;;;;;;;;;6341406;28;20073;-76
2023/05/04 11:01:43;;;;;;;4.22;3.83;;;;;;;;;;6344474;28;20059;-76
2023/05/04 11:04:46;;;;;;;6.03;5.43;;;;;;;;;;6341393;28;20059;-76
2023/05/04 11:07:51;;;;;;;7.53;6.72;;;;;;;;;;6341048;28;20324;-76
2023/05/04 11:11:01;;;;;;;4.82;4.32;;;;;;;;;;6342276;28;20051;-76
2023/05/04 11:14:03;;;;;;;4.57;4.18;;;;;;;;;;6330599;28;20352;-76
2023/05/04 11:17:08;;;;;;;6.38;4.60;;;;;;;;;;6340634;28;20055;-76
2023/05/04 11:20:19;;;;;;;6.18;5.28;;;;;;;;;;6342129;28;20096;-76
2023/05/04 11:23:21;;;;;;;6.32;5.03;;;;;;;;;;6340942;28;20066;-76
2023/05/04 11:26:23;;;;;;;6.20;5.03;;;;;;;;;;6339978;27;20058;-76
2023/05/04 11:29:25;;;;;;;6.70;4.55;;;;;;;;;;6345699;28;20526;-75
2023/05/04 11:32:34;;;;;;;7.30;6.07;;;;;;;;;;6341460;28;20056;-76
2023/05/04 11:35:37;;;;;;;8.00;5.93;;;;;;;;;;6339731;27;20048;-76
2023/05/04 11:38:42;;;;;;;7.93;6.47;;;;;;;;;;6339586;28;20059;-75
2023/05/04 11:41:44;;;;;;;9.00;5.78;;;;;;;;;;6337663;27;20047;-75
2023/05/04 11:44:46;;;;;;;6.83;6.13;;;;;;;;;;6341969;27;20059;-75
2023/05/04 11:47:49;;;;;;;7.07;6.40;;;;;;;;;;6341181;27;20321;-75
2023/05/04 11:50:53;;;;;;;;;;;;;;;;;;6340000;27;20596;-76
2023/05/04 11:53:55;;;;;;;7.53;6.72;;;;;;;;;;6337492;27;19935;-75
2023/05/04 11:56:58;;;;;;;7.93;7.07;;;;;;;;;;6344566;27;20602;-76
2023/05/04 11:59:59;;;;;;;7.75;6.40;;;;;;;;;;6340497;28;20118;-77
2023/05/04 12:03:01;;;;;;;5.60;5.05;;;;;;;;;;6339134;28;20048;-77
2023/05/04 12:06:05;;;;;;;7.57;5.50;;;;;;;;;;6339764;27;20633;-76
2023/05/04 12:09:07;;;;;;;6.60;5.57;;;;;;;;;;6340435;28;20228;-77
2023/05/04 12:12:09;;;;;;;7.80;7.10;;;;;;;;;;6339584;27;20058;-76
2023/05/04 12:15:11;;;;;;;7.90;6.25;;;;;;;;;;6344005;27;20113;-75
2023/05/04 12:18:28;;;;;;;7.87;7.07;;;;;;;;;;6339401;27;20085;-77
2023/05/04 12:21:31;;;;;;;6.72;6.13;;;;;;;;;;6343628;27;20070;-80
2023/05/04 12:24:33;;;;;;;8.07;6.90;;;;;;;;;;6331214;27;20052;-81
2023/05/04 12:27:35;;;;;;;7.38;6.68;;;;;;;;;;6335345;28;20108;-82
2023/05/04 12:30:37;;;;;;;8.20;6.93;;;;;;;;;;6343728;27;20323;-80
2023/05/04 12:33:41;;;;;;;7.03;6.30;;;;;;;;;;6342822;27;20040;-82
2023/05/04 12:36:45;;;;;;;7.57;6.15;;;;;;;;;;6342009;27;20361;-82
2023/05/04 12:39:47;;;;;;;8.90;7.25;;;;;;;;;;6345287;28;20055;-81
2023/05/04 12:42:49;;;;;;;8.93;7.57;;;;;;;;;;6342954;27;20043;-81
2023/05/04 12:45:52;;;;;;;8.63;7.72;;;;;;;;;;6346479;27;20058;-84
2023/05/04 12:48:53;;;;;;;7.60;6.80;;;;;;;;;;6347422;28;20070;-84
2023/05/04 12:51:57;;;;;;;6.80;5.82;;;;;;;;;;6343180;28;20056;-84
2023/05/04 12:54:58;;;;;;;6.47;5.88;;;;;;;;;;6345481;27;20043;-85
2023/05/04 12:58:00;;;;;;;7.23;6.17;;;;;;;;;;6341530;27;20048;-87
2023/05/04 13:01:02;;;;;;;8.32;6.35;;;;;;;;;;6341909;28;20100;-87
2023/05/04 13:04:03;;;;;;;9.45;6.20;;;;;;;;;;6341146;27;20060;-84
2023/05/04 13:07:07;;;;;;;8.13;6.53;;;;;;;;;;6343410;28;20064;-80
2023/05/04 13:10:10;;;;;;;6.80;6.10;;;;;;;;;;6341767;27;20105;-81
2023/05/04 13:13:12;;;;;;;7.88;6.78;;;;;;;;;;6338926;28;20044;-79
2023/05/04 13:16:14;;;;;;;9.30;5.88;;;;;;;;;;6339927;27;20557;-85
2023/05/04 13:19:16;;;;;;;;;;;;;;;;;;6341953;28;20051;-84
2023/05/04 13:22:19;;;;;;;5.25;4.70;;;;;;;;;;6344648;27;19915;-83
2023/05/04 13:25:22;;;;;;;6.38;5.13;;;;;;;;;;6335461;28;20047;-84
2023/05/04 13:28:24;;;;;;;6.13;5.30;;;;;;;;;;6338140;28;20044;-87
2023/05/04 13:31:25;;;;;;;5.30;4.75;;;;;;;;;;6341639;27;20081;-86
2023/05/04 13:34:27;;;;;;;5.35;4.70;;;;;;;;;;6338446;28;20056;-85
2023/05/04 13:37:30;;;;;;;5.28;4.72;;;;;;;;;;6338413;28;20059;-86
2023/05/04 13:40:32;;;;;;;5.65;4.72;;;;;;;;;;6337563;28;20055;-86
2023/05/04 13:43:33;;;;;;;28.13;15.63;;;;;;;;;;6340728;28;20054;-85
2023/05/04 13:46:36;;;;;;;5.82;4.93;;;;;;;;;;6319369;28;20096;-87
2023/05/04 13:49:37;;;;;;;5.32;4.03;;;;;;;;;;6341111;28;21155;-85
2023/05/04 13:52:40;;;;;;;7.63;6.93;;;;;;;;;;6341180;28;20036;-83
2023/05/04 13:55:42;;;;;;;7.18;6.47;;;;;;;;;;6343103;28;20059;-85
2023/05/04 13:58:44;;;;;;;7.15;5.45;;;;;;;;;;6338206;27;20052;-86
2023/05/04 14:01:46;;;;;;;9.00;6.55;;;;;;;;;;6340445;27;20466;-86
2023/05/04 14:04:49;;;;;;;7.40;4.80;;;;;;;;;;6339023;28;20052;-84
2023/05/04 14:07:52;;;;;;;5.15;4.43;;;;;;;;;;6339174;28;20083;-84
2023/05/04 14:10:53;;;;;;;5.18;4.07;;;;;;;;;;6340135;28;20105;-79
2023/05/04 14:13:55;;;;;;;5.23;4.73;;;;;;;;;;6339489;28;20217;-85
2023/05/04 14:16:57;;;;;;;4.17;3.80;;;;;;;;;;6342999;28;20546;-85
2023/05/04 14:19:59;;;;;;;4.50;3.80;;;;;;;;;;6319529;28;20052;-81
2023/05/04 14:23:02;;;;;;;6.35;3.88;;;;;;;;;;6338182;28;20469;-84
2023/05/04 14:26:04;;;;;;;4.60;4.05;;;;;;;;;;6338228;28;20059;-80
2023/05/04 14:29:06;;;;;;;4.20;3.80;;;;;;;;;;6339032;27;20362;-80
2023/05/04 14:32:08;;;;;;;6.20;3.28;;;;;;;;;;6346390;28;20096;-82
2023/05/04 14:35:11;;;;;;;5.13;3.97;;;;;;;;;;6343886;28;20056;-81
2023/05/04 14:38:14;;;;;;;;;;;;;;;;;;6341864;28;20101;-81
2023/05/04 14:41:15;;;;;;;4.28;3.28;;;;;;;;;;6346649;28;19950;-81
2023/05/04 14:44:17;;;;;;;4.22;3.53;;;;;;;;;;6341813;28;20048;-82
2023/05/04 14:47:19;;;;;;;7.45;4.50;;;;;;;;;;6341340;28;20052;-82
2023/05/04 14:50:21;;;;;;;8.77;5.00;;;;;;;;;;6341554;28;20043;-82
2023/05/04 14:53:24;;;;;;;5.38;4.80;;;;;;;;;;6344248;28;20465;-81
2023/05/04 14:56:27;;;;;;;4.93;4.32;;;;;;;;;;6341235;28;20063;-81
2023/05/04 14:59:29;;;;;;;;;;;;;;;;;;6340354;28;20056;-83
2023/05/04 15:02:30;;;;;;;3.92;3.20;;;;;;;;;;6342152;28;20145;-82
2023/05/04 15:05:33;;;;;;;7.30;3.87;;;;;;;;;;6323349;28;20044;-82
2023/05/04 15:08:36;;;;;;;5.70;4.03;;;;;;;;;;6343299;28;20071;-81
2023/05/04 15:11:37;;;;;;;5.55;5.05;;;;;;;;;;6342399;28;20051;-81
2023/05/04 15:14:39;;;;;;;8.45;4.53;;;;;;;;;;6338823;28;20047;-81
2023/05/04 15:17:41;;;;;;;4.07;3.65;;;;;;;;;;6343740;28;20347;-81
2023/05/04 15:20:43;;;;;;;4.67;3.77;;;;;;;;;;6337745;28;20302;-81
2023/05/04 15:23:46;;;;;;;6.97;4.28;;;;;;;;;;6334699;28;20472;-81
2023/05/04 15:26:47;;;;;;;13.63;6.75;;;;;;;;;;6336661;28;20050;-81
2023/05/04 15:29:49;;;;;;;7.95;5.03;;;;;;;;;;6332296;28;20100;-82
2023/05/04 15:32:51;;;;;;;4.20;3.78;;;;;;;;;;6319550;28;20073;-81
2023/05/04 15:35:53;;;;;;;3.72;3.40;;;;;;;;;;6335925;28;20510;-79
2023/05/04 15:38:56;;;;;;;5.13;3.83;;;;;;;;;;6343281;27;20328;-77
2023/05/04 15:41:58;;;;;;;4.97;3.47;;;;;;;;;;6340505;27;20047;-83
2023/05/04 15:45:00;;;;;;;4.70;3.70;;;;;;;;;;6339591;27;20231;-80
2023/05/04 15:48:02;;;;;;;4.00;3.33;;;;;;;;;;6343133;28;20052;-81
2023/05/04 15:51:04;;;;;;;6.75;3.72;;;;;;;;;;6341211;27;20303;-81
2023/05/04 15:54:07;;;;;;;8.10;4.15;;;;;;;;;;6341445;28;20051;-80
2023/05/04 15:57:08;;;;;;;;;;;;;;;;;;6342355;28;20545;-81
2023/05/04 16:00:11;;;;;;;3.95;3.08;;;;;;;;;;6340774;27;20120;-81
2023/05/04 16:03:13;;;;;;;5.95;3.92;;;;;;;;;;6340714;27;20375;-80
2023/05/04 16:06:16;;;;;;;5.85;3.72;;;;;;;;;;6342443;27;20058;-80
2023/05/04 16:09:19;;;;;;;5.93;3.38;;;;;;;;;;6340698;28;20048;-81
2023/05/04 16:12:21;;;;;;;4.43;3.83;;;;;;;;;;6339460;28;20116;-80
2023/05/04 16:15:22;;;;;;;4.18;3.78;;;;;;;;;;6340606;27;20056;-80
2023/05/04 16:18:24;;;;;;;7.10;3.80;;;;;;;;;;6339655;28;20035;-81
2023/05/04 16:21:26;;;;;;;4.65;3.30;;;;;;;;;;6339556;28;20379;-81
2023/05/04 16:24:30;;;;;;;4.50;3.50;;;;;;;;;;6337329;27;20055;-80
2023/05/04 16:27:31;;;;;;;5.95;3.35;;;;;;;;;;6340208;27;20059;-79
2023/05/04 16:30:34;;;;;;;6.63;3.70;;;;;;;;;;6342401;27;20294;-83
2023/05/04 16:33:35;;;;;;;43.13;31.77;;;;;;;;;;6340153;28;20044;-84
2023/05/04 16:36:40;;;;;;;25.90;18.80;;;;;;;;;;6338870;28;20472;-83
2023/05/04 16:39:43;;;;;;;7.75;4.40;;;;;;;;;;6322935;28;20060;-79
2023/05/04 16:42:46;;;;;;;6.32;3.22;;;;;;;;;;6338393;28;20068;-81
2023/05/04 16:45:49;;;;;;;3.50;3.10;;;;;;;;;;6340397;28;20242;-81
2023/05/04 16:48:51;;;;;;;6.00;3.08;;;;;;;;;;6338502;28;20039;-82
2023/05/04 16:51:54;;;;;;;11.38;6.35;;;;;;;;;;6338819;27;20055;-79
2023/05/04 16:54:57;;;;;;;5.00;4.35;;;;;;;;;;6347708;28;20094;-79
2023/05/04 16:57:58;;;;;;;5.68;4.03;;;;;;;;;;6341625;28;20174;-78
2023/05/04 17:01:00;;;;;;;5.47;4.03;;;;;;;;;;6342647;28;20111;-80
2023/05/04 17:04:02;;;;;;;6.55;4.00;;;;;;;;;;6339566;28;20118;-82
2023/05/04 17:07:04;;;;;;;5.60;3.85;;;;;;;;;;6338180;28;20105;-79
2023/05/04 17:10:08;;;;;;;5.35;3.70;;;;;;;;;;6339606;28;20266;-79
2023/05/04 17:13:10;;;;;;;6.53;5.15;;;;;;;;;;6337327;28;20221;-79
2023/05/04 17:16:12;;;;;;;7.57;4.38;;;;;;;;;;6337202;28;20338;-79
2023/05/04 17:19:14;;;;;;;17.95;12.32;;;;;;;;;;6335460;28;20106;-80
2023/05/04 17:22:16;;;;;;;15.88;9.25;;;;;;;;;;6339206;28;20063;-80
2023/05/04 17:25:20;;;;;;;13.13;7.35;;;;;;;;;;6332781;28;20108;-78
2023/05/04 17:28:22;;;;;;;8.07;4.00;;;;;;;;;;6336884;28;20670;-78
2023/05/04 17:31:23;;;;;;;5.68;4.00;;;;;;;;;;6338702;28;20051;-79
2023/05/04 17:34:25;;;;;;;9.45;4.60;;;;;;;;;;6334831;28;20064;-78
2023/05/04 17:37:27;;;;;;;5.32;4.03;;;;;;;;;;6327378;28;20720;-81
2023/05/04 17:40:30;;;;;;;5.35;4.30;;;;;;;;;;6340119;27;20114;-78
2023/05/04 17:43:32;;;;;;;6.05;4.13;;;;;;;;;;6338780;27;20051;-80
2023/05/04 17:46:34;;;;;;;6.28;3.97;;;;;;;;;;6338842;27;20071;-78
2023/05/04 17:49:39;;;;;;;6.60;3.97;;;;;;;;;;6333573;27;20086;-79
2023/05/04 17:52:41;;;;;;;8.07;4.85;;;;;;;;;;6330805;28;20051;-78
2023/05/04 17:55:44;;;;;;;7.60;4.22;;;;;;;;;;6330397;28;20312;-79
2023/05/04 17:58:46;;;;;;;5.85;4.20;;;;;;;;;;6337266;28;20278;-79
2023/05/04 18:01:51;;;;;;;7.30;4.68;;;;;;;;;;6337259;27;20378;-79
2023/05/04 18:05:02;;;;;;;7.15;4.30;;;;;;;;;;6327819;28;20040;-77
2023/05/04 18:08:07;;;;;;;8.38;4.13;;;;;;;;;;6335909;28;20048;-78
2023/05/04 18:11:22;;;;;;;39.60;22.67;;;;;;;;;;6340023;27;20063;-84
2023/05/04 18:14:24;;;;;;;66.72;41.53;;;;;;;;;;6341943;28;20117;-82
2023/05/04 18:17:29;;;;;;;69.45;42.67;;;;;;;;;;6333674;28;20055;-81
2023/05/04 18:20:34;;;;;;;61.47;37.05;;;;;;;;;;6341328;28;20056;-79
2023/05/04 18:23:35;;;;;;;7.60;5.93;;;;;;;;;;6336017;28;20055;-78
2023/05/04 18:26:38;;;;;;;7.35;5.03;;;;;;;;;;6337612;28;20059;-78
2023/05/04 18:29:40;;;;;;;5.63;4.22;;;;;;;;;;6341109;28;20047;-79
2023/05/04 18:32:42;;;;;;;5.85;3.78;;;;;;;;;;6335906;28;20441;-79
2023/05/04 18:35:44;;;;;;;6.03;4.32;;;;;;;;;;6337261;28;20079;-78
2023/05/04 18:38:50;;;;;;;5.38;4.18;;;;;;;;;;6335533;28;20087;-79
2023/05/04 18:41:53;;;;;;;6.60;4.35;;;;;;;;;;6338127;28;20056;-79
2023/05/04 18:44:55;;;;;;;5.20;4.53;;;;;;;;;;6337304;28;20081;-79
2023/05/04 18:47:57;;;;;;;6.03;4.53;;;;;;;;;;6331227;28;20364;-79
2023/05/04 18:50:59;;;;;;;6.63;4.35;;;;;;;;;;6336557;28;20097;-79
2023/05/04 18:54:01;;;;;;;6.78;4.50;;;;;;;;;;6340300;28;20082;-78
2023/05/04 18:57:05;;;;;;;8.48;5.03;;;;;;;;;;6336803;28;20127;-78
2023/05/04 19:00:08;;;;;;;6.28;4.80;;;;;;;;;;6336300;28;20047;-78
2023/05/04 19:03:10;;;;;;;9.35;4.80;;;;;;;;;;6336683;28;20096;-79